Time;durP1;ratioP1;P1;durP2;ratioP2;P2;SDS_P1;SDS_P2;PMS_P1;PMS_P2;Temp;Humidity;BMP_temperature;BMP_pressure;BME280_temperature;BME280_humidity;BME280_pressure;Samples;Min_cycle;Max_cycle;Signal;HPM_P1;HPM_P2
2021/12/05 00:21:03;;;;;;;7.15;2.72;;;3.40;99.90;;;;;;5032871;28;20041;-81
2021/12/05 00:23:00;;;;;;;13.70;2.10;;;3.50;99.90;;;;;;5013080;28;20042;-81
2021/12/05 00:25:29;;;;;;;10.73;1.95;;;3.50;99.90;;;;;;4995581;28;20489;-81
2021/12/05 00:28:44;;;;;;;13.38;2.65;;;3.50;99.90;;;;;;4995469;28;20092;-81
2021/12/05 01:08:37;;;;;;;10.52;1.92;;;3.50;99.90;;;;;;5032323;28;20032;-83
2021/12/05 01:13:59;;;;;;;11.18;2.78;;;3.50;99.90;;;;;;5032317;28;20420;-83
2021/12/05 01:16:26;;;;;;;;;;;3.50;99.90;;;;;;5033789;23;20017;-81
2021/12/05 01:18:52;;;;;;;9.50;1.65;;;3.50;99.90;;;;;;5033501;28;19920;-81
2021/12/05 01:21:22;;;;;;;7.72;1.98;;;3.50;99.90;;;;;;4998535;28;20034;-81
2021/12/05 01:52:35;;;;;;;7.97;1.65;;;3.40;99.90;;;;;;5002566;28;20030;-80
2021/12/05 02:41:22;;;;;;;8.20;1.27;;;3.40;99.90;;;;;;5015840;28;20465;-82
2021/12/05 02:43:58;;;;;;;1.80;1.05;;;3.30;99.90;;;;;;4998053;28;20459;-81
2021/12/05 02:46:25;;;;;;;3.88;1.00;;;3.30;99.90;;;;;;5013577;28;20102;-82
2021/12/05 02:48:52;;;;;;;2.42;1.05;;;3.30;99.90;;;;;;4981736;28;20032;-81
2021/12/05 02:51:25;;;;;;;4.30;1.05;;;3.40;99.90;;;;;;4977911;28;20468;-82
2021/12/05 02:56:28;;;;;;;3.95;0.93;;;3.30;99.90;;;;;;5010699;28;20425;-81
2021/12/05 02:58:58;;;;;;;6.68;0.90;;;3.30;99.90;;;;;;4997469;28;20018;-81
2021/12/05 03:01:44;;;;;;;1.65;0.90;;;3.30;99.90;;;;;;5013749;28;20030;-82
2021/12/05 03:04:10;;;;;;;4.35;0.90;;;3.30;99.90;;;;;;4999835;28;20034;-82
2021/12/05 03:06:38;;;;;;;3.50;1.20;;;3.30;99.90;;;;;;4979827;28;20037;-82
2021/12/05 03:09:09;;;;;;;5.90;1.10;;;3.30;99.90;;;;;;4994478;28;20141;-81
2021/12/05 03:11:36;;;;;;;4.13;1.02;;;3.30;99.90;;;;;;5005321;28;20030;-82
2021/12/05 03:14:02;;;;;;;6.65;1.15;;;3.30;99.90;;;;;;4997803;28;20034;-81
2021/12/05 03:16:29;;;;;;;6.13;0.80;;;3.30;99.90;;;;;;4980640;28;20074;-81
2021/12/05 03:18:55;;;;;;;2.75;0.80;;;3.30;99.90;;;;;;5013875;28;20025;-83
2021/12/05 03:21:22;;;;;;;7.22;0.98;;;3.30;99.90;;;;;;4994114;28;20033;-83
2021/12/05 03:23:49;;;;;;;7.22;1.20;;;3.30;99.90;;;;;;4994386;28;20022;-82
2021/12/05 03:26:27;;;;;;;4.05;0.80;;;3.30;99.90;;;;;;5009781;28;20026;-82
2021/12/05 03:28:55;;;;;;;2.95;1.38;;;3.30;99.90;;;;;;5009379;28;20029;-82
2021/12/05 03:31:22;;;;;;;5.38;1.15;;;3.30;99.90;;;;;;4967945;28;20026;-81
2021/12/05 03:33:48;;;;;;;1.77;0.90;;;3.30;99.90;;;;;;4964530;28;20412;-82
2021/12/05 03:36:14;;;;;;;5.38;0.88;;;3.20;99.90;;;;;;4979377;28;20030;-81
2021/12/05 03:38:41;;;;;;;8.45;1.50;;;3.30;99.90;;;;;;5000525;28;20455;-83
2021/12/05 03:41:07;;;;;;;5.20;1.67;;;3.30;99.90;;;;;;4984720;28;20029;-81
2021/12/05 03:43:33;;;;;;;3.63;0.90;;;3.30;99.90;;;;;;5000651;28;20036;-81
2021/12/05 03:45:59;;;;;;;3.78;1.20;;;3.30;99.90;;;;;;5015647;28;20029;-82
2021/12/05 03:48:29;;;;;;;3.45;0.90;;;3.30;99.90;;;;;;5000534;28;20033;-80
2021/12/05 03:50:58;;;;;;;3.53;1.08;;;3.30;99.90;;;;;;4996668;28;20101;-81
2021/12/05 03:53:24;;;;;;;5.63;1.02;;;3.30;99.90;;;;;;4982719;28;20041;-80
2021/12/05 03:55:52;;;;;;;2.22;0.70;;;3.30;99.90;;;;;;5009351;28;20124;-80
2021/12/05 03:58:19;;;;;;;6.10;1.13;;;3.30;99.90;;;;;;4992728;28;20038;-82
2021/12/05 04:00:49;;;;;;;5.93;1.52;;;3.30;99.90;;;;;;4980946;28;20141;-82
2021/12/05 04:03:17;;;;;;;4.95;1.10;;;3.30;99.90;;;;;;4996968;28;20436;-81
2021/12/05 04:05:43;;;;;;;4.10;1.00;;;3.30;99.90;;;;;;5015491;28;20501;-81
2021/12/05 04:08:12;;;;;;;3.00;1.17;;;3.30;99.90;;;;;;4984149;28;20034;-81
2021/12/05 04:10:41;;;;;;;5.53;1.05;;;3.30;99.90;;;;;;4984096;28;20030;-81
2021/12/05 04:13:10;;;;;;;2.63;0.88;;;3.30;99.90;;;;;;5016704;28;20021;-82
2021/12/05 04:15:37;;;;;;;5.32;1.15;;;3.30;99.90;;;;;;4998958;28;20058;-81
2021/12/05 04:18:03;;;;;;;6.57;1.33;;;3.30;99.90;;;;;;5000318;28;20500;-82
2021/12/05 04:20:29;;;;;;;4.05;0.90;;;3.30;99.90;;;;;;4997045;28;20112;-82
2021/12/05 04:22:57;;;;;;;5.38;1.00;;;3.40;99.90;;;;;;5016665;28;20136;-82
2021/12/05 04:25:23;;;;;;;3.10;0.70;;;3.30;99.90;;;;;;5000045;28;20025;-80
2021/12/05 04:27:50;;;;;;;1.27;1.00;;;3.30;99.90;;;;;;4980630;28;20125;-81
2021/12/05 04:30:20;;;;;;;6.15;1.65;;;3.30;99.90;;;;;;4997006;28;20034;-81
2021/12/05 04:32:46;;;;;;;5.97;1.50;;;3.40;99.90;;;;;;5000218;28;20029;-81
2021/12/05 04:35:12;;;;;;;3.95;1.20;;;3.40;99.90;;;;;;5000105;28;20053;-82
2021/12/05 04:37:38;;;;;;;2.75;1.40;;;3.30;99.90;;;;;;4996473;28;20129;-81
2021/12/05 04:40:06;;;;;;;5.07;1.58;;;3.30;99.90;;;;;;5005628;28;20116;-81
2021/12/05 04:42:32;;;;;;;4.68;1.60;;;3.30;99.90;;;;;;5016304;28;20064;-82
2021/12/05 04:45:01;;;;;;;5.43;1.40;;;3.40;99.90;;;;;;4983487;28;20034;-81
2021/12/05 04:47:26;;;;;;;5.22;1.10;;;3.30;99.90;;;;;;4986817;28;20034;-82
2021/12/05 04:49:52;;;;;;;8.20;1.55;;;3.30;99.90;;;;;;4996427;28;20064;-82
2021/12/05 04:52:18;;;;;;;3.42;1.50;;;3.40;99.90;;;;;;5008419;28;20036;-81
2021/12/05 04:54:43;;;;;;;6.43;1.17;;;3.30;99.90;;;;;;4982901;28;20443;-81
2021/12/05 04:57:10;;;;;;;4.00;1.55;;;3.30;99.90;;;;;;5016340;28;20032;-82
2021/12/05 04:59:37;;;;;;;2.67;1.23;;;3.40;99.90;;;;;;5015620;28;20025;-82
2021/12/05 05:02:06;;;;;;;5.75;1.30;;;3.30;99.90;;;;;;4995999;28;20120;-82
2021/12/05 05:04:39;;;;;;;4.70;1.25;;;3.30;99.90;;;;;;4983779;28;20033;-81
2021/12/05 05:07:12;;;;;;;4.75;1.17;;;3.30;99.90;;;;;;5008429;28;20034;-81
2021/12/05 05:09:38;;;;;;;5.05;1.20;;;3.30;99.90;;;;;;5012501;28;20029;-81
2021/12/05 05:12:04;;;;;;;3.25;1.30;;;3.30;99.90;;;;;;4982665;28;20026;-81
2021/12/05 05:14:30;;;;;;;2.63;1.15;;;3.30;99.90;;;;;;4996974;28;20031;-82
2021/12/05 05:16:55;;;;;;;3.25;1.00;;;3.30;99.90;;;;;;5005703;28;20116;-80
2021/12/05 05:19:28;;;;;;;3.78;0.95;;;3.30;99.90;;;;;;4996559;28;20045;-82
2021/12/05 05:22:05;;;;;;;3.70;1.15;;;3.20;99.90;;;;;;4997121;28;20034;-82
2021/12/05 05:30:03;;;;;;;3.65;1.23;;;3.10;99.90;;;;;;5015231;28;20032;-82
2021/12/05 05:41:09;;;;;;;7.20;1.70;;;3.00;99.90;;;;;;5002982;28;20118;-81
2021/12/05 05:46:16;;;;;;;1.35;1.13;;;3.00;99.90;;;;;;4996373;28;20108;-82
2021/12/05 05:51:14;;;;;;;3.40;1.73;;;3.00;99.90;;;;;;5016852;28;20116;-82
2021/12/05 05:53:40;;;;;;;12.30;1.75;;;3.10;99.90;;;;;;4996913;28;20436;-82
2021/12/05 05:56:12;;;;;;;13.18;2.00;;;3.10;99.90;;;;;;5015190;28;20688;-81
2021/12/05 05:58:42;;;;;;;6.57;1.75;;;3.10;99.90;;;;;;5013459;28;20044;-82
2021/12/05 06:01:17;;;;;;;;;;;3.10;99.90;;;;;;5000317;28;20054;-82
2021/12/05 06:03:43;;;;;;;10.07;1.80;;;3.10;99.90;;;;;;5000104;28;19913;-81
2021/12/05 06:06:11;;;;;;;6.15;1.48;;;3.10;99.90;;;;;;5015036;28;20116;-82
2021/12/05 06:08:39;;;;;;;8.57;1.65;;;3.20;99.90;;;;;;4982282;28;20543;-82
2021/12/05 06:11:08;;;;;;;6.13;1.55;;;3.10;99.90;;;;;;4998737;28;20032;-82
2021/12/05 06:13:35;;;;;;;8.18;1.63;;;3.10;99.90;;;;;;4977620;28;20032;-83
2021/12/05 06:16:02;;;;;;;4.82;1.55;;;3.10;99.90;;;;;;4998809;28;20049;-82
2021/12/05 06:18:28;;;;;;;4.30;1.10;;;3.10;99.90;;;;;;4997723;28;20065;-82
2021/12/05 06:20:54;;;;;;;4.85;1.83;;;3.00;99.90;;;;;;4997126;28;20040;-81
2021/12/05 06:23:21;;;;;;;4.65;1.27;;;3.00;99.90;;;;;;4980099;28;20026;-82
2021/12/05 06:25:50;;;;;;;2.90;1.30;;;3.00;99.90;;;;;;5014177;28;20116;-82
2021/12/05 06:28:22;;;;;;;7.25;1.60;;;2.90;99.90;;;;;;5013386;28;20624;-81
2021/12/05 06:41:54;;;;;;;6.90;1.73;;;3.00;99.90;;;;;;5017263;28;20072;-80
2021/12/05 06:47:06;;;;;;;12.73;1.40;;;3.00;99.90;;;;;;4984712;28;20041;-80
2021/12/05 06:49:31;;;;;;;3.72;1.77;;;3.00;99.90;;;;;;4978235;28;20041;-82
2021/12/05 06:51:57;;;;;;;6.72;2.50;;;3.10;99.90;;;;;;4994569;28;20032;-81
2021/12/05 06:54:24;;;;;;;3.45;1.55;;;3.10;99.90;;;;;;5013878;28;20025;-81
2021/12/05 06:56:50;;;;;;;5.03;1.65;;;3.10;99.90;;;;;;5013883;28;20053;-81
2021/12/05 06:59:16;;;;;;;14.23;1.98;;;3.10;99.90;;;;;;4997145;28;20025;-82
2021/12/05 07:01:41;;;;;;;7.70;1.40;;;3.10;99.90;;;;;;4999878;28;20511;-81
2021/12/05 07:04:19;;;;;;;9.55;2.10;;;3.10;99.90;;;;;;4980073;28;20030;-82
2021/12/05 07:06:45;;;;;;;3.05;1.50;;;3.10;99.90;;;;;;4979831;28;20125;-82
2021/12/05 07:09:11;;;;;;;3.42;1.55;;;3.10;99.90;;;;;;5000530;28;20061;-81
2021/12/05 07:21:39;;;;;;;4.05;1.25;;;3.20;99.90;;;;;;4999317;28;20030;-83
2021/12/05 07:24:20;;;;;;;4.78;1.80;;;3.20;99.90;;;;;;5016809;28;20057;-83
2021/12/05 07:27:04;;;;;;;2.50;1.70;;;3.20;99.90;;;;;;5012538;28;20070;-83
2021/12/05 07:40:32;;;;;;;4.38;1.20;;;3.20;99.90;;;;;;4990432;28;20097;-82
2021/12/05 07:43:07;;;;;;;4.07;1.33;;;3.10;99.90;;;;;;4968296;28;20553;-82
2021/12/05 07:45:41;;;;;;;9.43;1.33;;;3.20;99.90;;;;;;5002816;28;20082;-82
2021/12/05 07:48:17;;;;;;;3.70;1.15;;;3.10;99.90;;;;;;4985027;28;20421;-83
2021/12/05 07:53:39;;;;;;;4.15;1.38;;;3.10;99.90;;;;;;5003877;28;20033;-83
2021/12/05 07:56:14;;;;;;;5.70;1.20;;;3.20;99.90;;;;;;4988316;28;20546;-83
2021/12/05 08:14:41;;;;;;;6.55;1.33;;;3.40;99.90;;;;;;4983285;28;20398;-84
2021/12/05 08:17:14;;;;;;;5.15;1.23;;;3.40;99.90;;;;;;5003788;28;20395;-83
2021/12/05 08:19:39;;;;;;;4.15;0.90;;;3.50;99.90;;;;;;4978517;28;20042;-84
2021/12/05 08:22:05;;;;;;;1.85;1.05;;;3.50;99.90;;;;;;4988519;28;20033;-83
2021/12/05 08:24:33;;;;;;;6.45;1.45;;;3.50;99.90;;;;;;4980116;28;20042;-82
2021/12/05 08:27:05;;;;;;;6.82;1.25;;;3.50;99.90;;;;;;4979502;28;20038;-83
2021/12/05 08:29:40;;;;;;;4.15;1.58;;;3.50;99.90;;;;;;5001366;28;20026;-83
2021/12/05 08:40:14;;;;;;;4.78;1.40;;;3.50;99.90;;;;;;5013989;28;20030;-84
2021/12/05 09:23:46;;;;;;;1.25;0.85;;;4.40;99.90;;;;;;5015507;28;20061;-84
2021/12/05 09:38:26;;;;;;;2.47;1.13;;;4.40;99.90;;;;;;5003201;28;20029;-84
2021/12/05 10:01:45;;;;;;;4.22;1.00;;;4.50;99.90;;;;;;5115358;27;20450;-82
2021/12/05 10:15:33;;;;;;;1.83;1.10;;;5.00;99.90;;;;;;5086419;28;20024;-82
2021/12/05 10:38:03;;;;;;;3.45;1.00;;;5.20;99.90;;;;;;5076256;28;20035;-84
2021/12/05 10:40:40;;;;;;;2.13;0.70;;;5.20;99.90;;;;;;5070303;28;20396;-81
2021/12/05 10:43:15;;;;;;;2.88;0.90;;;5.20;99.90;;;;;;5066738;28;20382;-82
2021/12/05 10:45:50;;;;;;;6.25;1.50;;;5.20;99.90;;;;;;5065677;28;20036;-82
2021/12/05 10:48:47;;;;;;;2.05;0.80;;;5.10;99.90;;;;;;5102094;28;20035;-82
2021/12/05 10:51:27;;;;;;;2.40;0.82;;;5.10;99.90;;;;;;5087932;28;20459;-85
2021/12/05 10:54:03;;;;;;;7.68;0.80;;;5.00;99.90;;;;;;5093623;28;20027;-85
2021/12/05 10:56:36;;;;;;;4.55;0.90;;;5.00;99.90;;;;;;5088627;28;20111;-85
2021/12/05 10:59:37;;;;;;;1.42;0.70;;;5.10;99.90;;;;;;5072860;28;20023;-85
2021/12/05 11:02:24;;;;;;;1.27;0.80;;;5.20;99.90;;;;;;5091542;28;20511;-86
2021/12/05 11:04:50;;;;;;;1.50;0.93;;;5.30;99.90;;;;;;5081950;28;20028;-85
2021/12/05 11:07:21;;;;;;;2.67;0.73;;;5.30;99.90;;;;;;5043654;28;20108;-85
2021/12/05 11:09:57;;;;;;;5.05;0.73;;;5.30;99.90;;;;;;5059054;28;20500;-84
2021/12/05 11:12:25;;;;;;;1.02;0.65;;;5.40;99.90;;;;;;5074866;28;20059;-86
2021/12/05 11:14:57;;;;;;;2.40;0.90;;;5.30;99.90;;;;;;5060641;28;20031;-82
2021/12/05 11:17:28;;;;;;;1.48;0.90;;;5.30;99.90;;;;;;5075975;28;20060;-86
2021/12/05 11:20:09;;;;;;;1.98;1.10;;;5.30;99.90;;;;;;5058566;28;20040;-85
2021/12/05 11:23:04;;;;;;;2.83;1.40;;;5.30;99.90;;;;;;5056830;28;20033;-85
2021/12/05 11:25:32;;;;;;;5.03;1.60;;;5.40;99.90;;;;;;5050993;28;20060;-85
2021/12/05 11:28:04;;;;;;;1.85;1.00;;;5.50;99.90;;;;;;5059179;28;20029;-85
2021/12/05 11:30:35;;;;;;;0.95;0.63;;;5.50;99.90;;;;;;5070464;28;20063;-85
2021/12/05 11:33:17;;;;;;;3.85;0.98;;;5.50;99.90;;;;;;5066547;28;20424;-85
2021/12/05 11:36:03;;;;;;;0.52;0.52;;;5.50;99.90;;;;;;5091498;28;20054;-85
2021/12/05 11:38:34;;;;;;;1.38;0.50;;;5.50;99.90;;;;;;5051210;28;20033;-84
2021/12/05 11:41:10;;;;;;;1.55;0.80;;;5.50;99.90;;;;;;5039693;28;20053;-84
2021/12/05 11:43:37;;;;;;;0.60;0.38;;;5.50;99.90;;;;;;5070894;28;20068;-85
2021/12/05 11:46:13;;;;;;;3.25;0.80;;;5.40;99.90;;;;;;5068113;28;20025;-85
2021/12/05 11:48:44;;;;;;;2.22;0.75;;;5.40;99.90;;;;;;5065763;28;20047;-85
2021/12/05 11:51:23;;;;;;;1.15;0.70;;;5.50;99.90;;;;;;5034165;28;20029;-84
2021/12/05 11:53:53;;;;;;;2.83;0.55;;;5.50;99.90;;;;;;5066833;28;20393;-85
2021/12/05 11:56:31;;;;;;;1.33;0.80;;;5.60;99.90;;;;;;5049548;28;20072;-86
2021/12/05 11:59:05;;;;;;;1.83;1.00;;;5.60;99.90;;;;;;5050998;28;20025;-84
2021/12/05 12:02:01;;;;;;;1.33;0.70;;;5.60;99.90;;;;;;5051408;28;20033;-85
2021/12/05 12:04:37;;;;;;;0.63;0.47;;;5.60;99.90;;;;;;5077279;28;20024;-85
2021/12/05 12:07:09;;;;;;;0.85;0.35;;;5.50;99.90;;;;;;5079799;28;20028;-85
2021/12/05 12:09:34;;;;;;;2.22;0.47;;;5.40;99.90;;;;;;5070437;28;20370;-84
2021/12/05 12:12:00;;;;;;;3.72;1.58;;;5.30;99.90;;;;;;5069925;28;20033;-84
2021/12/05 12:14:27;;;;;;;6.40;0.95;;;5.20;99.90;;;;;;5072109;28;20577;-84
2021/12/05 12:16:53;;;;;;;0.95;0.60;;;5.30;99.90;;;;;;5064372;28;20029;-82
2021/12/05 12:19:22;;;;;;;0.47;0.47;;;5.30;99.90;;;;;;5067991;28;20032;-82
2021/12/05 12:21:52;;;;;;;0.52;0.52;;;5.40;99.90;;;;;;5065209;28;20033;-83
2021/12/05 12:24:17;;;;;;;3.58;0.70;;;5.60;99.90;;;;;;5064221;28;20035;-82
2021/12/05 12:26:44;;;;;;;2.42;0.65;;;5.70;99.90;;;;;;5077184;28;20032;-82
2021/12/05 12:29:12;;;;;;;2.42;0.60;;;5.80;99.90;;;;;;5068686;28;20039;-82
2021/12/05 12:31:41;;;;;;;1.27;0.30;;;5.80;99.90;;;;;;5067739;28;20037;-82
2021/12/05 12:34:22;;;;;;;1.73;0.32;;;5.80;99.90;;;;;;5088875;28;20400;-82
2021/12/05 12:36:55;;;;;;;0.93;0.50;;;5.80;99.20;;;;;;5071651;28;20031;-85
2021/12/05 12:39:21;;;;;;;0.60;0.47;;;5.70;99.90;;;;;;5068820;28;20025;-85
2021/12/05 12:42:18;;;;;;;2.38;0.70;;;5.60;99.40;;;;;;5063278;28;20023;-86
2021/12/05 12:45:03;;;;;;;0.85;0.40;;;5.60;99.90;;;;;;5079068;28;20379;-85
2021/12/05 12:47:46;;;;;;;1.52;0.40;;;5.60;99.90;;;;;;5054762;28;20066;-86
2021/12/05 12:50:24;;;;;;;0.77;0.57;;;5.50;99.90;;;;;;5065977;28;20066;-85
2021/12/05 12:53:09;;;;;;;2.03;0.68;;;5.60;99.90;;;;;;5072001;28;20055;-85
2021/12/05 12:55:37;;;;;;;2.78;0.65;;;5.60;99.90;;;;;;5065969;28;20035;-86
2021/12/05 12:58:07;;;;;;;4.22;0.70;;;5.60;99.90;;;;;;5070640;28;20036;-86
2021/12/05 13:00:36;;;;;;;0.55;0.50;;;5.60;99.90;;;;;;5068849;28;20087;-86
2021/12/05 13:03:15;;;;;;;1.30;0.63;;;5.60;99.90;;;;;;5087871;28;20116;-86
2021/12/05 13:11:12;;;;;;;0.95;0.60;;;5.70;99.90;;;;;;5077552;28;20058;-85
2021/12/05 13:13:41;;;;;;;2.58;0.40;;;5.70;99.90;;;;;;5076023;28;20202;-85
2021/12/05 13:16:26;;;;;;;1.13;0.40;;;5.60;99.90;;;;;;5064464;28;20401;-85
2021/12/05 13:19:26;;;;;;;11.40;2.53;;;5.60;99.90;;;;;;5099489;22;20052;-83
2021/12/05 13:21:54;;;;;;;1.23;0.60;;;5.50;99.90;;;;;;5031699;28;20441;-83
2021/12/05 13:24:31;;;;;;;1.27;1.02;;;5.40;99.90;;;;;;5032330;28;20083;-83
2021/12/05 13:27:09;;;;;;;2.00;0.93;;;5.30;99.90;;;;;;5049083;28;20033;-83
2021/12/05 13:29:49;;;;;;;2.38;0.93;;;5.30;99.90;;;;;;5046822;28;20490;-83
2021/12/05 13:32:23;;;;;;;4.72;1.45;;;5.30;99.90;;;;;;5018064;28;20039;-83
2021/12/05 13:34:50;;;;;;;2.53;1.20;;;5.20;99.90;;;;;;5049024;28;20032;-83
2021/12/05 13:37:16;;;;;;;3.92;1.90;;;5.20;99.90;;;;;;5052091;28;20020;-83
2021/12/05 13:39:42;;;;;;;5.25;1.70;;;5.10;99.90;;;;;;5062586;28;20475;-83
2021/12/05 13:42:13;;;;;;;4.13;1.42;;;5.00;99.90;;;;;;5062860;28;20036;-83
2021/12/05 13:45:05;;;;;;;6.07;1.63;;;5.00;99.90;;;;;;5028955;28;20032;-82
2021/12/05 13:47:39;;;;;;;2.17;1.23;;;4.90;99.90;;;;;;5023329;28;20048;-83
2021/12/05 13:50:18;;;;;;;1.95;0.80;;;4.80;99.90;;;;;;5032733;28;20029;-83
2021/12/05 13:52:49;;;;;;;3.63;0.70;;;4.80;99.90;;;;;;5039442;28;20479;-83
2021/12/05 13:55:34;;;;;;;1.85;0.73;;;4.80;99.90;;;;;;5050505;28;20425;-83
2021/12/05 13:58:18;;;;;;;1.73;0.93;;;4.70;99.90;;;;;;5051918;28;20025;-83
2021/12/05 14:00:55;;;;;;;3.50;1.13;;;4.70;99.90;;;;;;5049060;28;20502;-83
2021/12/05 14:03:39;;;;;;;1.92;0.85;;;4.60;99.90;;;;;;5026865;28;20032;-82
2021/12/05 14:06:24;;;;;;;1.33;0.85;;;4.60;99.90;;;;;;5052250;28;20020;-82
2021/12/05 14:08:52;;;;;;;1.50;0.75;;;4.60;99.90;;;;;;5050723;28;20479;-82
2021/12/05 14:11:18;;;;;;;2.00;0.90;;;4.60;99.90;;;;;;5049212;28;20033;-83
2021/12/05 14:13:45;;;;;;;5.53;1.70;;;4.70;99.90;;;;;;5032743;28;20100;-83
2021/12/05 14:16:11;;;;;;;3.05;1.15;;;4.70;99.90;;;;;;5048217;28;20048;-83
2021/12/05 14:18:36;;;;;;;4.72;0.88;;;4.70;99.90;;;;;;5032722;28;20037;-83
2021/12/05 14:21:18;;;;;;;0.68;0.40;;;4.70;99.90;;;;;;5033043;28;20025;-83
2021/12/05 14:23:51;;;;;;;1.85;0.70;;;4.60;99.90;;;;;;5032691;28;20435;-83
2021/12/05 14:26:20;;;;;;;1.58;0.90;;;4.60;99.90;;;;;;5063894;28;20425;-82
2021/12/05 14:29:08;;;;;;;0.95;0.57;;;4.50;99.90;;;;;;5048646;28;20052;-82
2021/12/05 14:31:38;;;;;;;4.90;0.50;;;4.40;99.90;;;;;;5036304;28;20029;-82
2021/12/05 14:34:09;;;;;;;1.58;0.65;;;4.30;99.90;;;;;;5031123;28;20047;-83
2021/12/05 14:36:51;;;;;;;0.70;0.57;;;4.30;99.90;;;;;;5049481;28;20039;-83
2021/12/05 14:39:32;;;;;;;2.15;0.70;;;4.20;99.90;;;;;;5064549;28;20040;-82
2021/12/05 14:41:59;;;;;;;;;;;4.20;99.90;;;;;;5056431;28;20039;-82
2021/12/05 14:44:25;;;;;;;0.50;0.40;;;4.10;99.90;;;;;;5034637;28;19912;-83
2021/12/05 14:46:57;;;;;;;0.40;0.40;;;4.20;99.90;;;;;;5037995;28;20028;-82
2021/12/05 14:49:26;;;;;;;0.50;0.47;;;4.20;99.90;;;;;;5045091;28;20495;-83
2021/12/05 14:51:53;;;;;;;1.65;0.90;;;4.20;99.90;;;;;;5067410;28;20110;-83
2021/12/05 14:54:40;;;;;;;2.13;0.75;;;4.20;99.90;;;;;;5056634;28;20051;-83
2021/12/05 14:57:22;;;;;;;1.20;0.80;;;4.20;99.90;;;;;;5049205;28;20441;-82
2021/12/05 14:59:50;;;;;;;4.53;1.10;;;4.20;99.90;;;;;;5060554;28;20028;-82
2021/12/05 15:02:18;;;;;;;2.60;1.52;;;4.10;99.90;;;;;;5044168;28;20033;-83
2021/12/05 15:04:48;;;;;;;4.32;1.80;;;4.10;99.90;;;;;;5038468;28;20491;-82
2021/12/05 15:07:17;;;;;;;2.97;1.50;;;4.10;99.90;;;;;;5035395;28;20032;-82
2021/12/05 15:09:46;;;;;;;3.28;1.50;;;4.10;99.90;;;;;;5051697;28;20025;-83
2021/12/05 15:12:18;;;;;;;2.53;1.10;;;4.00;99.90;;;;;;5051192;28;20041;-82
2021/12/05 15:14:47;;;;;;;2.53;1.20;;;4.00;99.90;;;;;;5042892;28;20029;-83
2021/12/05 15:17:23;;;;;;;1.90;0.65;;;4.00;99.90;;;;;;5003888;28;20556;-83
2021/12/05 15:19:53;;;;;;;4.55;1.70;;;3.90;99.90;;;;;;5036946;28;20505;-82
2021/12/05 15:22:20;;;;;;;2.17;0.85;;;3.90;99.90;;;;;;5037786;28;20441;-85
2021/12/05 15:24:58;;;;;;;0.88;0.80;;;3.90;99.90;;;;;;5036458;28;20926;-82
2021/12/05 15:27:27;;;;;;;4.60;1.00;;;3.80;99.90;;;;;;5041460;28;20037;-81
2021/12/05 15:30:05;;;;;;;1.10;0.70;;;3.70;99.90;;;;;;5050743;28;20074;-84
2021/12/05 15:32:32;;;;;;;10.20;3.50;;;3.70;99.90;;;;;;5047883;28;20029;-83
2021/12/05 15:35:01;;;;;;;10.20;3.17;;;3.60;99.90;;;;;;5037200;28;20035;-83
2021/12/05 15:37:27;;;;;;;7.32;2.58;;;3.50;99.90;;;;;;5035784;28;20036;-84
2021/12/05 15:39:55;;;;;;;7.25;2.35;;;3.40;99.90;;;;;;5059140;28;20032;-82
2021/12/05 15:42:26;;;;;;;6.00;2.53;;;3.30;99.90;;;;;;5032208;28;20137;-81
2021/12/05 15:44:54;;;;;;;5.22;2.00;;;3.20;99.90;;;;;;5057711;28;20032;-82
2021/12/05 15:47:22;;;;;;;7.05;2.25;;;3.10;99.90;;;;;;5045808;28;20037;-82
2021/12/05 15:50:12;;;;;;;6.00;1.80;;;3.00;99.90;;;;;;5032631;28;20157;-82
2021/12/05 15:52:59;;;;;;;3.83;1.05;;;3.00;99.90;;;;;;5034545;28;20116;-82
2021/12/05 15:55:31;;;;;;;3.05;1.58;;;2.90;99.90;;;;;;5060205;28;20421;-82
2021/12/05 15:58:24;;;;;;;2.17;1.10;;;2.80;99.90;;;;;;5054843;28;20108;-82
2021/12/05 16:00:59;;;;;;;4.72;1.83;;;2.80;99.90;;;;;;5051437;28;20029;-82
2021/12/05 16:03:47;;;;;;;4.70;1.88;;;2.70;99.90;;;;;;5054071;28;20403;-83
2021/12/05 16:06:15;;;;;;;5.07;2.17;;;2.70;99.90;;;;;;5052663;28;20039;-83
2021/12/05 16:08:43;;;;;;;3.03;1.77;;;2.70;99.90;;;;;;5053328;28;20482;-82
2021/12/05 16:11:18;;;;;;;2.15;1.65;;;2.70;99.90;;;;;;5037201;28;20063;-84
2021/12/05 16:13:47;;;;;;;4.10;2.17;;;2.70;99.90;;;;;;5060276;28;20023;-84
2021/12/05 16:16:21;;;;;;;3.17;1.48;;;2.70;99.90;;;;;;5053747;28;20050;-84
2021/12/05 16:18:53;;;;;;;5.10;1.63;;;2.80;99.90;;;;;;5049900;28;20032;-83
2021/12/05 16:21:28;;;;;;;3.67;1.83;;;2.80;99.90;;;;;;5053668;28;20073;-83
2021/12/05 16:23:56;;;;;;;6.05;1.80;;;2.80;99.90;;;;;;5021170;28;20533;-84
2021/12/05 16:26:23;;;;;;;2.70;1.27;;;2.80;99.90;;;;;;5053174;28;20028;-83
2021/12/05 16:29:07;;;;;;;2.08;1.60;;;2.90;99.90;;;;;;5034809;28;20037;-85
2021/12/05 16:31:36;;;;;;;2.33;1.17;;;2.90;99.90;;;;;;5057098;28;20056;-84
2021/12/05 16:34:17;;;;;;;5.95;1.77;;;2.90;99.90;;;;;;5054762;28;20419;-84
2021/12/05 16:36:47;;;;;;;;;;;3.00;99.90;;;;;;5069812;28;20031;-82
2021/12/05 16:39:17;;;;;;;1.30;1.20;;;3.00;99.90;;;;;;5057513;28;19935;-82
2021/12/05 16:41:50;;;;;;;1.80;1.10;;;3.00;99.90;;;;;;5047358;28;21491;-82
2021/12/05 16:44:22;;;;;;;1.50;0.90;;;3.00;99.90;;;;;;5063582;28;20032;-82
2021/12/05 16:47:12;;;;;;;2.70;1.48;;;3.00;99.90;;;;;;5045438;28;20028;-84
2021/12/05 16:49:46;;;;;;;2.42;1.25;;;2.90;99.90;;;;;;5046952;28;20131;-84
2021/12/05 16:52:38;;;;;;;1.17;1.00;;;3.00;99.90;;;;;;5044419;28;20044;-81
2021/12/05 16:55:26;;;;;;;1.45;0.90;;;2.90;99.90;;;;;;5068891;28;20025;-84
2021/12/05 16:57:59;;;;;;;2.28;1.00;;;2.90;99.90;;;;;;5031778;28;20120;-84
2021/12/05 17:00:28;;;;;;;1.20;0.90;;;2.90;99.90;;;;;;5049008;28;20040;-81
2021/12/05 17:02:58;;;;;;;1.38;0.80;;;2.90;99.90;;;;;;5049909;28;20032;-82
2021/12/05 17:05:32;;;;;;;2.03;1.00;;;2.80;99.90;;;;;;5064277;28;20117;-84
2021/12/05 17:08:12;;;;;;;2.75;0.60;;;2.80;99.90;;;;;;5049959;28;20025;-82
2021/12/05 17:10:37;;;;;;;7.05;0.90;;;2.80;99.90;;;;;;5048779;28;20048;-84
2021/12/05 17:13:12;;;;;;;1.10;0.77;;;2.80;99.90;;;;;;5045677;28;20036;-84
2021/12/05 17:15:44;;;;;;;2.50;0.90;;;2.80;99.90;;;;;;5047045;28;20052;-82
2021/12/05 17:18:42;;;;;;;1.80;1.00;;;2.80;99.90;;;;;;5050739;28;20048;-84
2021/12/05 17:21:21;;;;;;;1.70;0.63;;;2.80;99.90;;;;;;5042309;28;20040;-82
2021/12/05 17:23:52;;;;;;;2.80;0.77;;;2.80;99.90;;;;;;5053777;28;20021;-84
2021/12/05 17:26:24;;;;;;;;;;;2.80;99.90;;;;;;5080345;28;20394;-82
2021/12/05 17:28:56;;;;;;;1.50;0.70;;;2.80;99.90;;;;;;5079171;28;19904;-84
2021/12/05 17:31:29;;;;;;;4.95;0.70;;;2.80;99.90;;;;;;5045211;28;20029;-84
2021/12/05 17:33:58;;;;;;;3.58;0.75;;;2.70;99.90;;;;;;5055731;28;20020;-82
2021/12/05 17:36:37;;;;;;;2.78;0.77;;;2.80;99.90;;;;;;5048989;28;20024;-84
2021/12/05 17:39:16;;;;;;;0.90;0.75;;;2.80;99.90;;;;;;5047857;28;20055;-83
2021/12/05 17:41:45;;;;;;;4.78;0.60;;;2.80;99.90;;;;;;5068223;28;20117;-84
2021/12/05 17:44:13;;;;;;;2.40;0.70;;;2.80;99.90;;;;;;5054480;28;20398;-84
2021/12/05 17:46:39;;;;;;;1.17;0.85;;;2.80;99.90;;;;;;5072515;28;20036;-85
2021/12/05 17:49:08;;;;;;;1.95;0.80;;;2.80;99.90;;;;;;5051934;28;20072;-84
2021/12/05 17:51:37;;;;;;;1.50;0.82;;;2.70;99.90;;;;;;5059811;28;20044;-84
2021/12/05 17:54:06;;;;;;;2.80;0.95;;;2.70;99.90;;;;;;5056979;28;20062;-84
2021/12/05 17:56:48;;;;;;;1.05;0.90;;;2.60;99.90;;;;;;5050837;28;20028;-84
2021/12/05 18:04:39;;;;;;;2.33;1.08;;;2.30;99.90;;;;;;5057421;28;20086;-84
2021/12/05 18:07:05;;;;;;;3.42;1.70;;;2.20;99.90;;;;;;5034685;28;20055;-83
2021/12/05 18:09:31;;;;;;;3.17;1.60;;;2.10;99.90;;;;;;5037853;28;20036;-83
2021/12/05 18:11:56;;;;;;;7.70;3.72;;;2.00;99.90;;;;;;5029984;28;20087;-83
2021/12/05 18:14:22;;;;;;;10.15;3.80;;;1.90;99.90;;;;;;5057811;28;20032;-83
2021/12/05 18:16:48;;;;;;;13.38;4.75;;;1.90;99.90;;;;;;5051273;28;20033;-83
2021/12/05 18:19:17;;;;;;;7.03;3.17;;;1.80;99.90;;;;;;5041760;28;20118;-83
2021/12/05 18:21:44;;;;;;;3.38;1.10;;;1.80;99.90;;;;;;5031245;28;20115;-84
2021/12/05 18:24:13;;;;;;;4.53;1.73;;;1.70;99.90;;;;;;5047297;28;20561;-84
2021/12/05 18:26:40;;;;;;;3.28;1.33;;;1.70;99.90;;;;;;5031653;28;20087;-83
2021/12/05 18:29:08;;;;;;;5.10;1.42;;;1.60;99.90;;;;;;5055390;28;20036;-83
2021/12/05 18:31:35;;;;;;;2.92;1.67;;;1.50;99.90;;;;;;5042729;28;20124;-85
2021/12/05 18:34:06;;;;;;;2.83;1.67;;;1.50;99.90;;;;;;5057297;28;20023;-82
2021/12/05 18:36:34;;;;;;;6.15;2.47;;;1.40;99.90;;;;;;5057903;28;20025;-83
2021/12/05 18:39:00;;;;;;;3.97;1.98;;;1.40;99.90;;;;;;5059526;28;20004;-83
2021/12/05 18:41:28;;;;;;;4.18;2.10;;;1.40;99.90;;;;;;5044815;28;20032;-83
2021/12/05 18:43:54;;;;;;;5.82;2.45;;;1.40;99.90;;;;;;5058390;28;20399;-82
2021/12/05 18:46:20;;;;;;;4.10;2.33;;;1.40;99.90;;;;;;5059460;28;20024;-83
2021/12/05 18:48:46;;;;;;;4.18;2.45;;;1.40;99.90;;;;;;5061328;28;20078;-83
2021/12/05 18:51:13;;;;;;;3.47;1.90;;;1.30;99.90;;;;;;5039192;28;20028;-82
2021/12/05 18:53:41;;;;;;;6.15;2.10;;;1.30;99.90;;;;;;5025216;28;20512;-82
2021/12/05 18:56:08;;;;;;;4.47;1.88;;;1.20;99.90;;;;;;5039708;28;20025;-83